This is the latest recevied weather packets stored in our database for station/object K6HFP. If no packets are shown the sender has not sent any weather packets the latest 10 day(s).
| Time | Temp. | Humidity | Pressure | Rain* | Wind** | Luminosity | Snow |
|---|---|---|---|---|---|---|---|
| 1777655335 | 20° C | 62% | 1013.4 hPa | 0 mm | - | 632 W/m² | - |
| 1777655032 | 20° C | 62% | 1013.2 hPa | 0 mm | - | 634 W/m² | - |
| 1777654730 | 20° C | 62% | 1013.1 hPa | 0 mm | - | 626 W/m² | - |
| 1777654428 | 20° C | 61% | 1013.1 hPa | 0 mm | - | 609 W/m² | - |
| 1777654125 | 20° C | 60% | 1013.2 hPa | 0 mm | - | 579 W/m² | - |
| 1777653823 | 19.44° C | 63% | 1013.3 hPa | 0 mm | - | 564 W/m² | - |
| 1777653518 | 19.44° C | 62% | 1013.2 hPa | 0 mm | - | 550 W/m² | - |
| 1777653215 | 20° C | 62% | 1013.3 hPa | 0 mm | - | 522 W/m² | - |
| 1777652912 | 19.44° C | 64% | 1013.3 hPa | 0 mm | - | 517 W/m² | - |
| 1777652609 | 19.44° C | 63% | 1013.3 hPa | 0 mm | - | 482 W/m² | - |
| 1777652306 | 19.44° C | 62% | 1013.2 hPa | 0 mm | - | 459 W/m² | - |
| 1777652003 | 19.44° C | 62% | 1013.1 hPa | 0 mm | - | 437 W/m² | - |
| 1777651700 | 18.89° C | 64% | 1013.2 hPa | 0 mm | - | 411 W/m² | - |
| 1777651396 | 18.33° C | 65% | 1013 hPa | 0 mm | - | 410 W/m² | - |
| 1777651093 | 18.33° C | 64% | 1013.2 hPa | 0 mm | - | 404 W/m² | - |
| 1777650790 | 18.33° C | 65% | 1013.1 hPa | 0 mm | - | 390 W/m² | - |
| 1777650486 | 18.33° C | 65% | 1012.9 hPa | 0 mm | - | 343 W/m² | - |
| 1777650184 | 17.78° C | 67% | 1012.9 hPa | 0 mm | - | 347 W/m² | - |
| 1777649881 | 17.78° C | 66% | 1013.1 hPa | 0 mm | - | 304 W/m² | - |
| 1777649579 | 17.78° C | 66% | 1013 hPa | 0 mm | - | 317 W/m² | - |
| 1777649275 | 18.33° C | 64% | 1013 hPa | 0 mm | - | 289 W/m² | - |
| 1777648972 | 17.78° C | 65% | 1013 hPa | 0 mm | - | 274 W/m² | - |
| 1777648670 | 17.22° C | 66% | 1013.1 hPa | 0 mm | - | 266 W/m² | - |
| 1777648365 | 17.78° C | 65% | 1012.8 hPa | 0 mm | - | 238 W/m² | - |
| 1777648062 | 17.22° C | 64% | 1012.8 hPa | 0 mm | - | 218 W/m² | - |
* Rain latest hour (hover to see other rain measurements)
** Current wind speed in m/s (hover to see current wind gust speed)